createdAt,value
2022-10-04T00:03:46.324Z,25.80
2022-10-04T00:08:53.915Z,26.70
2022-10-04T00:14:10.057Z,27.60
2022-10-04T00:19:15.064Z,26.60
2022-10-04T00:24:31.596Z,26.20
2022-10-04T00:29:35.994Z,26.50
2022-10-04T00:34:50.049Z,26.70
2022-10-04T00:40:15.445Z,26.60
2022-10-04T00:45:23.926Z,27.10
2022-10-04T00:50:48.292Z,26.20
2022-10-04T00:55:58.556Z,26.60
2022-10-04T01:01:03.144Z,26.40
2022-10-04T01:06:07.899Z,27.60
2022-10-04T01:11:23.783Z,27.30
2022-10-04T01:16:33.718Z,28.10
2022-10-04T01:21:38.717Z,27.80
2022-10-04T01:26:45.853Z,28.10
2022-10-04T01:31:50.168Z,27.50
2022-10-04T01:36:57.957Z,27.20
2022-10-04T01:42:23.245Z,27.20
2022-10-04T01:47:37.526Z,27.20
2022-10-04T01:52:55.920Z,27.40
2022-10-04T01:58:07.392Z,28.00
2022-10-04T02:03:17.778Z,26.80
2022-10-04T02:08:30.365Z,27.20
2022-10-04T02:13:39.284Z,27.80
2022-10-04T02:18:45.517Z,27.30
2022-10-04T02:23:48.374Z,27.50
2022-10-04T02:28:51.029Z,27.70
2022-10-04T02:33:57.488Z,27.20
2022-10-04T02:39:02.522Z,27.50
2022-10-04T02:44:46.920Z,28.10
2022-10-04T02:50:01.884Z,28.50
2022-10-04T02:55:24.646Z,27.60
2022-10-04T03:00:31.907Z,27.80
2022-10-04T03:05:34.495Z,27.90
2022-10-04T03:10:36.601Z,27.60
2022-10-04T03:15:39.562Z,27.80
2022-10-04T03:20:42.733Z,27.80
2022-10-04T03:25:53.365Z,27.60
2022-10-04T03:30:57.054Z,27.70
2022-10-04T03:36:00.878Z,27.60
2022-10-04T03:41:04.505Z,27.90
2022-10-04T03:46:08.887Z,28.20
2022-10-04T03:51:16.861Z,28.20
2022-10-04T03:56:21.797Z,27.90
2022-10-04T04:01:26.995Z,27.80
2022-10-04T04:06:43.116Z,28.10
2022-10-04T04:11:49.251Z,28.00
2022-10-04T04:16:53.103Z,27.90
2022-10-04T04:21:56.130Z,28.00
2022-10-04T04:27:01.284Z,27.90
2022-10-04T04:32:12.182Z,28.50
2022-10-04T04:37:14.334Z,28.90
2022-10-04T04:42:18.916Z,27.70
2022-10-04T04:47:34.518Z,28.20
2022-10-04T04:52:37.945Z,28.60
2022-10-04T04:57:40.109Z,28.80
2022-10-04T05:02:56.154Z,28.60
2022-10-04T05:08:20.884Z,28.20
2022-10-04T05:13:29.172Z,28.60
2022-10-04T05:18:34.459Z,28.70
2022-10-04T05:23:36.640Z,28.70
2022-10-04T05:28:39.368Z,28.70
2022-10-04T05:33:47.223Z,28.60
2022-10-04T05:39:09.606Z,29.10
2022-10-04T05:44:23.778Z,29.00
2022-10-04T05:49:33.285Z,29.10
2022-10-04T05:54:37.252Z,29.10
2022-10-04T06:00:07.257Z,29.20
2022-10-04T06:05:37.607Z,29.50
2022-10-04T06:10:58.981Z,29.40
2022-10-04T06:16:11.909Z,28.70
2022-10-04T06:21:24.384Z,29.00
2022-10-04T06:26:40.544Z,29.20
2022-10-04T06:32:01.212Z,30.00
2022-10-04T06:37:35.567Z,29.60
2022-10-04T06:43:06.192Z,29.80
2022-10-04T06:48:56.696Z,29.20
2022-10-04T06:54:01.455Z,30.10
2022-10-04T06:59:13.693Z,29.20
2022-10-04T07:04:49.975Z,29.70
2022-10-04T07:10:17.981Z,30.20
2022-10-04T07:15:24.857Z,29.80
2022-10-04T07:20:32.146Z,29.80
2022-10-04T07:25:42.016Z,29.90
2022-10-04T07:30:51.796Z,30.00
2022-10-04T07:36:08.745Z,30.00
2022-10-04T07:41:18.855Z,30.30
2022-10-04T07:46:48.077Z,30.40
2022-10-04T07:52:03.596Z,31.20
2022-10-04T07:57:48.038Z,30.80
2022-10-04T08:03:17.771Z,31.00
2022-10-04T08:08:29.815Z,31.20
2022-10-04T08:13:53.696Z,31.30
2022-10-04T08:19:11.594Z,31.20
2022-10-04T08:24:41.626Z,31.40
2022-10-04T08:29:49.470Z,31.90
2022-10-04T08:35:11.386Z,30.60
2022-10-04T08:40:39.119Z,30.80
2022-10-04T08:46:04.578Z,30.20
2022-10-04T08:51:25.705Z,30.70
2022-10-04T08:57:05.779Z,30.10
2022-10-04T09:02:32.410Z,29.90
2022-10-04T09:07:43.410Z,30.00
2022-10-04T09:13:05.614Z,30.10
2022-10-04T09:18:30.367Z,30.00
2022-10-04T09:23:33.720Z,29.70
2022-10-04T09:29:23.438Z,29.20
2022-10-04T09:34:52.751Z,29.00
2022-10-04T09:40:28.889Z,29.00
2022-10-04T09:45:55.319Z,28.60
2022-10-04T09:51:19.139Z,29.30
2022-10-04T09:56:56.754Z,28.10
2022-10-04T10:02:17.705Z,28.60
2022-10-04T10:07:28.842Z,27.80
2022-10-04T10:13:18.244Z,26.70
2022-10-04T10:18:29.259Z,27.20
2022-10-04T10:23:48.077Z,26.90
2022-10-04T10:29:24.288Z,27.00
2022-10-04T10:34:47.446Z,26.90
2022-10-04T10:40:16.893Z,26.10
2022-10-04T10:45:46.426Z,26.10
2022-10-04T10:51:10.783Z,26.00
2022-10-04T10:56:46.032Z,26.20
2022-10-04T11:02:47.705Z,25.90
2022-10-04T11:08:00.513Z,25.90
2022-10-04T11:13:38.330Z,25.30
2022-10-04T11:19:17.553Z,25.30
2022-10-04T11:24:46.862Z,25.20
2022-10-04T11:30:00.614Z,24.60
2022-10-04T11:35:37.124Z,23.90
2022-10-04T11:41:22.877Z,23.90
2022-10-04T11:46:43.573Z,24.20
2022-10-04T11:52:22.919Z,24.00
2022-10-04T11:57:39.818Z,23.20
2022-10-04T12:03:10.816Z,22.50
2022-10-04T12:08:32.765Z,22.20
2022-10-04T12:14:24.633Z,20.70
2022-10-04T12:19:57.730Z,21.10
2022-10-04T12:25:30.722Z,20.70
2022-10-04T12:31:13.403Z,20.00
2022-10-04T12:36:24.572Z,19.50
2022-10-04T12:42:02.340Z,19.30
2022-10-04T12:47:39.228Z,18.70
2022-10-04T12:53:01.690Z,16.70
2022-10-04T12:58:13.950Z,16.20
2022-10-04T13:04:01.642Z,16.00
2022-10-04T13:09:19.967Z,16.20
2022-10-04T13:14:39.737Z,16.50
2022-10-04T13:20:03.579Z,16.50
2022-10-04T13:25:27.533Z,16.00
2022-10-04T13:30:37.438Z,15.40
2022-10-04T13:35:48.561Z,13.70
2022-10-04T13:41:19.936Z,11.80
2022-10-04T13:46:39.878Z,13.10
2022-10-04T13:52:18.683Z,9.30
2022-10-04T13:57:37.081Z,9.40
2022-10-04T14:03:13.361Z,7.30
2022-10-04T14:08:35.963Z,5.60
2022-10-04T14:14:12.961Z,4.70
2022-10-04T14:19:23.931Z,3.70
2022-10-04T14:24:46.495Z,2.50
2022-10-04T14:30:14.782Z,1.60
2022-10-04T14:35:42.227Z,1.00
2022-10-04T14:41:15.629Z,1.00
2022-10-04T14:46:38.962Z,1.00
2022-10-04T14:51:55.757Z,1.00
2022-10-04T14:57:12.593Z,1.00
2022-10-04T15:02:31.176Z,1.00
2022-10-04T15:07:40.791Z,1.00
2022-10-04T15:13:10.996Z,1.00
2022-10-04T15:18:38.496Z,1.00
2022-10-04T15:23:47.337Z,1.00
2022-10-04T15:28:49.356Z,1.00
2022-10-04T15:34:00.612Z,1.00
2022-10-04T15:39:25.066Z,1.20
2022-10-04T15:44:45.970Z,1.70
2022-10-04T15:49:53.651Z,4.00
2022-10-04T15:55:31.339Z,5.10
2022-10-04T16:01:04.359Z,4.80
2022-10-04T16:06:17.366Z,6.10
2022-10-04T16:11:36.062Z,7.20
2022-10-04T16:16:39.843Z,7.70
2022-10-04T16:21:47.790Z,8.10
2022-10-04T16:26:50.494Z,8.90
2022-10-04T16:31:57.612Z,9.30
2022-10-04T16:37:09.413Z,10.30
2022-10-04T16:42:17.605Z,10.40
2022-10-04T16:47:27.287Z,10.80
2022-10-04T16:52:48.133Z,11.10
2022-10-04T16:58:27.133Z,11.10
2022-10-04T17:03:36.306Z,12.20
2022-10-04T17:09:04.771Z,13.30
2022-10-04T17:14:35.999Z,12.60
2022-10-04T17:19:52.960Z,14.00
2022-10-04T17:25:19.774Z,14.70
2022-10-04T17:30:23.492Z,14.60
2022-10-04T17:35:58.899Z,15.70
2022-10-04T17:41:50.986Z,15.90
2022-10-04T17:47:03.715Z,16.00
2022-10-04T17:52:34.992Z,16.70
2022-10-04T17:57:52.739Z,15.90
2022-10-04T18:03:17.351Z,16.80
2022-10-04T18:08:43.925Z,18.10
2022-10-04T18:14:07.794Z,18.70
2022-10-04T18:19:28.705Z,17.90
2022-10-04T18:24:31.027Z,18.00
2022-10-04T18:29:43.487Z,18.50
2022-10-04T18:34:57.281Z,19.90
2022-10-04T18:40:19.791Z,20.00
2022-10-04T18:45:25.589Z,20.20
2022-10-04T18:50:38.018Z,20.60
2022-10-04T18:56:08.231Z,20.70
2022-10-04T19:01:56.984Z,19.70
2022-10-04T19:07:30.267Z,20.10
2022-10-04T19:12:41.244Z,20.10
2022-10-04T19:17:58.000Z,21.50
2022-10-04T19:23:19.049Z,20.90
2022-10-04T19:28:30.257Z,20.70
2022-10-04T19:34:05.701Z,22.20
2022-10-04T19:39:36.199Z,22.20
2022-10-04T19:45:16.092Z,22.30
2022-10-04T19:50:34.734Z,22.30
2022-10-04T19:55:58.753Z,21.90
2022-10-04T20:01:01.015Z,21.90
2022-10-04T20:06:04.037Z,22.30
2022-10-04T20:11:22.923Z,22.00
2022-10-04T20:16:47.222Z,21.90
2022-10-04T20:21:49.756Z,22.10
2022-10-04T20:27:08.984Z,22.30
2022-10-04T20:32:34.195Z,22.40
2022-10-04T20:38:19.873Z,22.50
2022-10-04T20:43:22.311Z,22.70
2022-10-04T20:48:31.147Z,23.20
2022-10-04T20:53:33.474Z,22.70
2022-10-04T21:03:38.049Z,23.10
2022-10-04T21:08:41.041Z,23.10
2022-10-04T21:13:50.074Z,23.20
2022-10-04T21:18:52.119Z,23.20
2022-10-04T21:23:54.182Z,23.50
2022-10-04T21:28:57.674Z,23.60
2022-10-04T21:33:59.709Z,23.60
2022-10-04T21:39:01.745Z,23.70
2022-10-04T21:44:03.766Z,23.90
2022-10-04T21:49:07.037Z,23.90
2022-10-04T21:54:09.246Z,24.10
2022-10-04T21:59:11.263Z,24.10
2022-10-04T22:04:13.603Z,24.80
2022-10-04T22:09:15.654Z,25.20
2022-10-04T22:14:17.687Z,24.70
2022-10-04T22:19:19.717Z,25.30
2022-10-04T22:24:21.975Z,25.30
2022-10-04T22:29:24.094Z,25.30
2022-10-04T22:34:26.164Z,25.40
2022-10-04T22:39:30.401Z,25.50
2022-10-04T22:44:36.718Z,25.70
2022-10-04T22:49:41.903Z,25.30
2022-10-04T22:54:52.926Z,25.30
2022-10-04T22:59:55.003Z,25.30
2022-10-04T23:05:01.643Z,26.20
2022-10-04T23:10:03.930Z,25.60
2022-10-04T23:15:06.850Z,26.00
2022-10-04T23:20:18.321Z,26.20
2022-10-04T23:25:29.529Z,27.70
2022-10-04T23:30:31.914Z,26.70
2022-10-04T23:35:34.442Z,26.80
2022-10-04T23:45:41.932Z,26.50
2022-10-04T23:50:44.351Z,26.60
